createdAt,value
2023-04-29T00:01:39.577Z,94459
2023-04-29T00:05:05.249Z,94448
2023-04-29T00:08:29.947Z,94453
2023-04-29T00:11:55.172Z,94448
2023-04-29T00:15:20.510Z,94441
2023-04-29T00:18:45.548Z,94443
2023-04-29T00:22:10.740Z,94452
2023-04-29T00:25:35.922Z,94455
2023-04-29T00:29:01.108Z,94445
2023-04-29T00:32:26.338Z,94442
2023-04-29T00:35:51.494Z,94439
2023-04-29T00:39:16.703Z,94439
2023-04-29T00:42:41.907Z,94439
2023-04-29T00:46:07.137Z,94449
2023-04-29T00:49:32.305Z,94451
2023-04-29T00:52:57.488Z,94461
2023-04-29T00:56:22.694Z,94451
2023-04-29T00:59:47.878Z,94460
2023-04-29T01:03:13.159Z,94452
2023-04-29T01:06:38.283Z,94449
2023-04-29T01:10:03.472Z,94449
2023-04-29T01:13:28.671Z,94449
2023-04-29T01:16:53.879Z,94452
2023-04-29T01:20:19.084Z,94455
2023-04-29T01:23:44.286Z,94461
2023-04-29T01:27:09.491Z,94461
2023-04-29T01:30:34.693Z,94461
2023-04-29T01:33:59.915Z,94462
2023-04-29T01:37:25.095Z,94460
2023-04-29T01:40:50.307Z,94457
2023-04-29T01:44:15.449Z,94458
2023-04-29T01:47:40.707Z,94468
2023-04-29T01:51:05.859Z,94461
2023-04-29T01:54:31.047Z,94466
2023-04-29T01:57:56.257Z,94467
2023-04-29T02:01:21.456Z,94468
2023-04-29T02:04:46.659Z,94466
2023-04-29T02:08:11.813Z,94472
2023-04-29T02:11:37.006Z,94475
2023-04-29T02:15:02.219Z,94476
2023-04-29T02:18:27.407Z,94473
2023-04-29T02:21:52.604Z,94478
2023-04-29T02:25:17.882Z,94477
2023-04-29T02:28:43.085Z,94479
2023-04-29T02:32:08.404Z,94475
2023-04-29T02:35:33.492Z,94483
2023-04-29T02:38:58.669Z,94482
2023-04-29T02:42:23.877Z,94483
2023-04-29T02:45:49.101Z,94479
2023-04-29T02:49:14.298Z,94482
2023-04-29T02:52:39.482Z,94483
2023-04-29T02:56:04.683Z,94480
2023-04-29T02:59:29.877Z,94482
2023-04-29T03:02:55.170Z,94481
2023-04-29T03:06:20.311Z,94486
2023-04-29T03:09:45.480Z,94490
2023-04-29T03:13:10.668Z,94490
2023-04-29T03:16:35.922Z,94490
2023-04-29T03:20:01.062Z,94487
2023-04-29T03:23:26.252Z,94481
2023-04-29T03:26:51.416Z,94481
2023-04-29T03:30:16.602Z,94482
2023-04-29T03:33:41.797Z,94483
2023-04-29T03:37:06.994Z,94478
2023-04-29T03:40:32.210Z,94472
2023-04-29T03:43:57.372Z,94476
2023-04-29T03:47:22.573Z,94475
2023-04-29T03:50:47.781Z,94481
2023-04-29T03:54:12.988Z,94480
2023-04-29T03:57:39.310Z,94482
2023-04-29T04:01:03.358Z,94482
2023-04-29T04:04:28.751Z,94477
2023-04-29T04:07:53.721Z,94480
2023-04-29T04:11:18.908Z,94480
2023-04-29T04:14:44.132Z,94486
2023-04-29T04:18:09.351Z,94489
2023-04-29T04:21:34.847Z,94489
2023-04-29T04:25:00.048Z,94489
2023-04-29T04:28:25.218Z,94497
2023-04-29T04:31:50.494Z,94506
2023-04-29T04:35:15.590Z,94509
2023-04-29T04:38:40.803Z,94512
2023-04-29T04:42:05.988Z,94508
2023-04-29T04:45:31.219Z,94512
2023-04-29T04:48:57.006Z,94518
2023-04-29T04:52:22.157Z,94512
2023-04-29T04:55:47.386Z,94522
2023-04-29T04:59:12.568Z,94523
2023-04-29T05:02:38.035Z,94524
2023-04-29T05:06:03.004Z,94523
2023-04-29T05:09:28.211Z,94526
2023-04-29T05:12:53.564Z,94531
2023-04-29T05:16:18.863Z,94526
2023-04-29T05:19:44.009Z,94530
2023-04-29T05:23:09.421Z,94529
2023-04-29T05:26:34.501Z,94530
2023-04-29T05:29:59.808Z,94531
2023-04-29T05:33:25.017Z,94536
2023-04-29T05:36:50.179Z,94536
2023-04-29T05:40:15.365Z,94537
2023-04-29T05:43:40.514Z,94538
2023-04-29T05:47:05.683Z,94546
2023-04-29T05:50:30.854Z,94547
2023-04-29T05:53:56.005Z,94545
2023-04-29T05:57:21.181Z,94544
2023-04-29T06:00:46.317Z,94550
2023-04-29T06:04:11.574Z,94554
2023-04-29T06:07:36.640Z,94561
2023-04-29T06:11:01.813Z,94564
2023-04-29T06:14:27.034Z,94566
2023-04-29T06:17:52.325Z,94568
2023-04-29T06:21:17.471Z,94571
2023-04-29T06:24:42.665Z,94576
2023-04-29T06:28:07.812Z,94574
2023-04-29T06:31:33.035Z,94580
2023-04-29T06:34:58.162Z,94586
2023-04-29T06:38:23.340Z,94588
2023-04-29T06:41:48.508Z,94593
2023-04-29T06:45:13.671Z,94595
2023-04-29T06:48:38.852Z,94601
2023-04-29T06:52:04.002Z,94603
2023-04-29T06:55:29.183Z,94604
2023-04-29T06:58:54.336Z,94601
2023-04-29T07:02:19.530Z,94614
2023-04-29T07:05:44.677Z,94618
2023-04-29T07:09:09.805Z,94620
2023-04-29T07:12:34.972Z,94623
2023-04-29T07:16:00.138Z,94629
2023-04-29T07:19:25.303Z,94631
2023-04-29T07:22:50.477Z,94636
2023-04-29T07:26:15.640Z,94638
2023-04-29T07:29:40.825Z,94642
2023-04-29T07:33:06.061Z,94645
2023-04-29T07:36:31.163Z,94648
2023-04-29T07:39:56.367Z,94659
2023-04-29T07:43:21.543Z,94660
2023-04-29T07:46:46.804Z,94661
2023-04-29T07:50:11.960Z,94666
2023-04-29T07:53:37.182Z,94666
2023-04-29T07:57:02.434Z,94671
2023-04-29T08:00:27.607Z,94679
2023-04-29T08:03:53.091Z,94681
2023-04-29T08:07:18.055Z,94683
2023-04-29T08:10:43.272Z,94688
2023-04-29T08:14:08.488Z,94685
2023-04-29T08:17:33.718Z,94692
2023-04-29T08:20:58.932Z,94690
2023-04-29T08:24:24.149Z,94698
2023-04-29T08:27:49.386Z,94703
2023-04-29T08:31:14.642Z,94706
2023-04-29T08:34:39.830Z,94707
2023-04-29T08:38:05.089Z,94714
2023-04-29T08:41:30.317Z,94709
2023-04-29T08:44:55.543Z,94713
2023-04-29T08:48:20.828Z,94720
2023-04-29T08:51:46.025Z,94726
2023-04-29T08:55:11.285Z,94732
2023-04-29T08:58:36.541Z,94730
2023-04-29T09:02:01.773Z,94736
2023-04-29T09:05:27.044Z,94738
2023-04-29T09:08:52.225Z,94745
2023-04-29T09:12:17.450Z,94746
2023-04-29T09:15:42.753Z,94748
2023-04-29T09:19:07.982Z,94748
2023-04-29T09:22:33.221Z,94749
2023-04-29T09:25:58.471Z,94759
2023-04-29T09:29:23.662Z,94762
2023-04-29T09:32:48.873Z,94771
2023-04-29T09:36:14.119Z,94772
2023-04-29T09:39:39.376Z,94777
2023-04-29T09:43:04.595Z,94786
2023-04-29T09:46:29.884Z,94779
2023-04-29T09:49:55.100Z,94786
2023-04-29T09:53:20.329Z,94794
2023-04-29T09:56:45.619Z,94800
2023-04-29T10:00:11.015Z,94799
2023-04-29T10:03:36.233Z,94798
2023-04-29T10:07:01.327Z,94805
2023-04-29T10:10:27.073Z,94802
2023-04-29T10:13:51.694Z,94809
2023-04-29T10:17:16.843Z,94803
2023-04-29T10:20:41.980Z,94803
2023-04-29T10:24:07.165Z,94806
2023-04-29T10:27:32.345Z,94800
2023-04-29T10:30:57.660Z,94809
2023-04-29T10:34:22.669Z,94816
2023-04-29T10:37:47.856Z,94818
2023-04-29T10:41:13.025Z,94817
2023-04-29T10:44:38.183Z,94818
2023-04-29T10:48:03.413Z,94813
2023-04-29T10:51:28.540Z,94817
2023-04-29T10:54:53.898Z,94818
2023-04-29T10:58:18.888Z,94823
2023-04-29T11:01:44.084Z,94819
2023-04-29T11:05:09.370Z,94824
2023-04-29T11:08:34.437Z,94829
2023-04-29T11:11:59.590Z,94833
2023-04-29T11:15:24.761Z,94839
2023-04-29T11:18:49.917Z,94839
2023-04-29T11:22:15.135Z,94841
2023-04-29T11:25:40.276Z,94836
2023-04-29T11:29:05.484Z,94839
2023-04-29T11:32:30.673Z,94845
2023-04-29T11:35:55.750Z,94849
2023-04-29T11:39:20.933Z,94847
2023-04-29T11:42:46.089Z,94858
2023-04-29T11:46:11.286Z,94858
2023-04-29T11:49:36.425Z,94861
2023-04-29T11:53:01.591Z,94861
2023-04-29T11:56:26.796Z,94861
2023-04-29T11:59:51.953Z,94870
2023-04-29T12:03:17.309Z,94863
2023-04-29T12:06:42.318Z,94866
2023-04-29T12:10:07.487Z,94869
2023-04-29T12:13:32.701Z,94866
2023-04-29T12:16:57.850Z,94882
2023-04-29T12:20:23.043Z,94883
2023-04-29T12:23:48.221Z,94888
2023-04-29T12:27:13.407Z,94894
2023-04-29T12:30:38.594Z,94888
2023-04-29T12:34:03.734Z,94889
2023-04-29T12:37:28.890Z,94891
2023-04-29T12:40:54.043Z,94893
2023-04-29T12:44:19.257Z,94895
2023-04-29T12:47:44.496Z,94890
2023-04-29T12:51:09.609Z,94898
2023-04-29T12:54:35.142Z,94906
2023-04-29T12:58:01.167Z,94901
2023-04-29T13:01:25.503Z,94910
2023-04-29T13:04:50.688Z,94914
2023-04-29T13:08:15.923Z,94913
2023-04-29T13:11:41.011Z,94913
2023-04-29T13:15:06.175Z,94915
2023-04-29T13:18:31.592Z,94915
2023-04-29T13:21:56.513Z,94918
2023-04-29T13:25:21.674Z,94919
2023-04-29T13:28:46.809Z,94916
2023-04-29T13:32:12.013Z,94916
2023-04-29T13:35:37.134Z,94924
2023-04-29T13:39:02.380Z,94920
2023-04-29T13:42:27.453Z,94923
2023-04-29T13:45:53.125Z,94921
2023-04-29T13:49:39.131Z,94928
2023-04-29T14:06:24.275Z,94938
2023-04-29T14:09:49.458Z,94943
2023-04-29T14:13:14.640Z,94948
2023-04-29T14:16:39.816Z,94949
2023-04-29T14:20:04.994Z,94955
2023-04-29T14:23:30.109Z,94954
2023-04-29T14:26:55.293Z,94963
2023-04-29T14:30:20.489Z,94969
2023-04-29T14:33:45.627Z,94972
2023-04-29T14:37:10.793Z,94973
2023-04-29T14:40:35.946Z,94975
2023-04-29T14:44:01.098Z,94979
2023-04-29T14:47:26.307Z,94981
2023-04-29T14:50:51.446Z,94980
2023-04-29T14:54:16.620Z,94990
2023-04-29T14:57:41.770Z,94986
2023-04-29T15:01:06.959Z,94990
2023-04-29T15:04:32.179Z,94996
2023-04-29T15:42:11.767Z,95029
2023-04-29T15:45:37.016Z,95023
2023-04-29T15:49:02.202Z,95036
2023-04-29T15:52:27.391Z,95041
2023-04-29T15:55:52.617Z,95044
2023-04-29T15:59:17.889Z,95047
2023-04-29T16:02:43.064Z,95051
2023-04-29T16:06:08.292Z,95054
2023-04-29T16:09:33.489Z,95056
2023-04-29T16:12:58.698Z,95058
2023-04-29T16:16:24.891Z,95059
2023-04-29T16:19:50.077Z,95064
2023-04-29T16:23:15.277Z,95062
2023-04-29T16:26:40.476Z,95069
2023-04-29T16:30:05.663Z,95075
2023-04-29T16:33:30.863Z,95082
2023-04-29T16:36:56.069Z,95079
2023-04-29T16:40:21.277Z,95082
2023-04-29T16:43:46.475Z,95082
2023-04-29T16:47:11.681Z,95091
2023-04-29T16:50:36.886Z,95086
2023-04-29T16:54:02.111Z,95090
2023-04-29T16:57:27.297Z,95099
2023-04-29T17:00:52.486Z,95098
2023-04-29T17:04:17.736Z,95096
2023-04-29T17:07:42.911Z,95097
2023-04-29T17:11:08.112Z,95097
2023-04-29T17:14:33.303Z,95104
2023-04-29T17:17:58.575Z,95102
2023-04-29T17:21:23.718Z,95108
2023-04-29T17:24:48.977Z,95110
2023-04-29T17:28:14.120Z,95105
2023-04-29T17:31:39.398Z,95111
2023-04-29T17:35:04.814Z,95112
2023-04-29T17:38:30.090Z,95113
2023-04-29T17:41:55.336Z,95117
2023-04-29T17:45:20.585Z,95130
2023-04-29T17:48:45.791Z,95127
2023-04-29T17:52:10.982Z,95130
2023-04-29T17:55:36.176Z,95133
2023-04-29T17:59:01.410Z,95137
2023-04-29T18:02:26.585Z,95136
2023-04-29T18:05:51.767Z,95147
2023-04-29T18:09:16.949Z,95149
2023-04-29T18:12:42.118Z,95146
2023-04-29T18:16:07.375Z,95151
2023-04-29T18:19:32.545Z,95156
2023-04-29T18:22:57.692Z,95154
2023-04-29T18:26:22.982Z,95157
2023-04-29T18:29:48.176Z,95158
2023-04-29T18:33:13.433Z,95162
2023-04-29T18:36:38.552Z,95163
2023-04-29T18:40:03.745Z,95163
2023-04-29T18:43:28.967Z,95167
2023-04-29T18:46:54.143Z,95169
2023-04-29T18:50:19.376Z,95175
2023-04-29T18:53:44.548Z,95178
2023-04-29T18:57:09.797Z,95178
2023-04-29T19:00:35.001Z,95180
2023-04-29T19:04:00.338Z,95184
2023-04-29T19:07:25.388Z,95186
2023-04-29T19:10:50.781Z,95190
2023-04-29T19:14:15.991Z,95194
2023-04-29T19:17:41.218Z,95196
2023-04-29T19:21:06.411Z,95209
2023-04-29T19:24:31.589Z,95210
2023-04-29T19:27:56.757Z,95205
2023-04-29T19:31:22.040Z,95209
2023-04-29T19:34:47.176Z,95219
2023-04-29T19:38:12.357Z,95222
2023-04-29T19:41:37.594Z,95228
2023-04-29T19:45:02.775Z,95227
2023-04-29T19:48:28.042Z,95231
2023-04-29T19:51:53.247Z,95226
2023-04-29T19:55:18.431Z,95227
2023-04-29T19:58:43.653Z,95227
2023-04-29T20:02:08.854Z,95226
2023-04-29T20:05:34.036Z,95224
2023-04-29T20:08:59.217Z,95220
2023-04-29T20:12:24.419Z,95224
2023-04-29T20:15:49.664Z,95228
2023-04-29T20:19:14.816Z,95229
2023-04-29T20:22:40.027Z,95227
2023-04-29T20:26:05.252Z,95227
2023-04-29T20:29:30.379Z,95226
2023-04-29T20:32:55.630Z,95233
2023-04-29T20:36:20.795Z,95236
2023-04-29T20:39:45.992Z,95237
2023-04-29T20:43:11.191Z,95238
2023-04-29T20:46:36.445Z,95236
2023-04-29T20:50:02.045Z,95244
2023-04-29T20:53:26.952Z,95241
2023-04-29T20:56:52.131Z,95244
2023-04-29T21:00:17.319Z,95246
2023-04-29T21:03:42.548Z,95248
2023-04-29T21:07:07.805Z,95253
2023-04-29T21:10:32.969Z,95256
2023-04-29T21:13:58.148Z,95255
2023-04-29T21:17:23.339Z,95256
2023-04-29T21:20:48.522Z,95263
2023-04-29T21:24:13.842Z,95267
2023-04-29T21:27:38.919Z,95267
2023-04-29T21:31:04.164Z,95270
2023-04-29T21:34:29.328Z,95271
2023-04-29T21:37:54.524Z,95276
2023-04-29T21:41:19.760Z,95277
2023-04-29T21:44:44.936Z,95276
2023-04-29T21:48:10.150Z,95276
2023-04-29T21:51:35.301Z,95275
2023-04-29T21:55:00.490Z,95276
2023-04-29T21:58:25.708Z,95274
2023-04-29T22:01:50.885Z,95273
2023-04-29T22:05:16.062Z,95273
2023-04-29T22:08:41.244Z,95275
2023-04-29T22:12:06.433Z,95276
2023-04-29T22:15:31.655Z,95272
2023-04-29T22:18:56.799Z,95272
2023-04-29T22:22:22.028Z,95272
2023-04-29T22:25:47.202Z,95271
2023-04-29T22:29:12.420Z,95277
2023-04-29T22:32:37.654Z,95278
2023-04-29T22:36:02.785Z,95283
2023-04-29T22:39:27.976Z,95282
2023-04-29T22:42:53.195Z,95282
2023-04-29T22:46:18.445Z,95279
2023-04-29T22:49:43.647Z,95283
2023-04-29T22:53:08.790Z,95281
2023-04-29T22:56:34.003Z,95280
2023-04-29T22:59:59.180Z,95288
2023-04-29T23:03:24.364Z,95290
2023-04-29T23:06:49.592Z,95286
2023-04-29T23:10:14.750Z,95284
2023-04-29T23:13:39.940Z,95286
2023-04-29T23:17:05.170Z,95284
2023-04-29T23:20:30.415Z,95286
2023-04-29T23:23:55.626Z,95288
2023-04-29T23:27:20.845Z,95293
2023-04-29T23:30:46.020Z,95285
2023-04-29T23:34:11.240Z,95289
2023-04-29T23:37:36.476Z,95293
2023-04-29T23:41:01.653Z,95297
2023-04-29T23:44:26.810Z,95297
2023-04-29T23:47:52.082Z,95303
2023-04-29T23:51:17.238Z,95295
2023-04-29T23:54:42.465Z,95297
2023-04-29T23:58:07.699Z,95297
